sensor_id;sensor_type;location;lat;lon;timestamp;P1;P2;P0
70922;PMS5003;58573;28.942;-13.688;2023-01-15T00:01:19;9;9;
70922;PMS5003;58573;28.942;-13.688;2023-01-15T00:03:43;7;7;
70922;PMS5003;58573;28.942;-13.688;2023-01-15T00:06:09;6;6;
70922;PMS5003;58573;28.942;-13.688;2023-01-15T00:08:34;7;6;
70922;PMS5003;58573;28.942;-13.688;2023-01-15T00:11:01;7;7;
70922;PMS5003;58573;28.942;-13.688;2023-01-15T00:13:26;6;6;
70922;PMS5003;58573;28.942;-13.688;2023-01-15T00:15:51;7;7;
70922;PMS5003;58573;28.942;-13.688;2023-01-15T00:18:16;7;6;
70922;PMS5003;58573;28.942;-13.688;2023-01-15T00:20:42;6;6;
70922;PMS5003;58573;28.942;-13.688;2023-01-15T00:23:08;4;4;
70922;PMS5003;58573;28.942;-13.688;2023-01-15T00:25:33;6;6;
70922;PMS5003;58573;28.942;-13.688;2023-01-15T00:27:59;5;5;
70922;PMS5003;58573;28.942;-13.688;2023-01-15T00:30:24;5;5;
70922;PMS5003;58573;28.942;-13.688;2023-01-15T00:32:50;6;6;
70922;PMS5003;58573;28.942;-13.688;2023-01-15T00:35:16;7;7;
70922;PMS5003;58573;28.942;-13.688;2023-01-15T00:37:41;6;6;
70922;PMS5003;58573;28.942;-13.688;2023-01-15T00:40:07;6;6;
70922;PMS5003;58573;28.942;-13.688;2023-01-15T00:42:32;6;6;
70922;PMS5003;58573;28.942;-13.688;2023-01-15T00:44:58;6;6;
70922;PMS5003;58573;28.942;-13.688;2023-01-15T00:47:23;9;7;
70922;PMS5003;58573;28.942;-13.688;2023-01-15T00:49:48;6;6;
70922;PMS5003;58573;28.942;-13.688;2023-01-15T00:52:14;8;8;
70922;PMS5003;58573;28.942;-13.688;2023-01-15T00:54:40;7;7;
70922;PMS5003;58573;28.942;-13.688;2023-01-15T00:57:05;9;9;
70922;PMS5003;58573;28.942;-13.688;2023-01-15T00:59:31;9;9;
70922;PMS5003;58573;28.942;-13.688;2023-01-15T01:01:56;7;7;
70922;PMS5003;58573;28.942;-13.688;2023-01-15T01:04:21;9;9;
70922;PMS5003;58573;28.942;-13.688;2023-01-15T01:06:47;10;10;
70922;PMS5003;58573;28.942;-13.688;2023-01-15T01:09:12;10;10;
70922;PMS5003;58573;28.942;-13.688;2023-01-15T01:11:38;10;10;
70922;PMS5003;58573;28.942;-13.688;2023-01-15T01:14:03;10;10;
70922;PMS5003;58573;28.942;-13.688;2023-01-15T01:16:30;12;12;
70922;PMS5003;58573;28.942;-13.688;2023-01-15T01:18:55;9;9;
70922;PMS5003;58573;28.942;-13.688;2023-01-15T01:21:20;13;12;
70922;PMS5003;58573;28.942;-13.688;2023-01-15T01:23:47;18;18;
70922;PMS5003;58573;28.942;-13.688;2023-01-15T01:26:11;9;9;
70922;PMS5003;58573;28.942;-13.688;2023-01-15T01:28:37;13;12;
70922;PMS5003;58573;28.942;-13.688;2023-01-15T01:31:03;13;13;
70922;PMS5003;58573;28.942;-13.688;2023-01-15T01:33:28;12;12;
70922;PMS5003;58573;28.942;-13.688;2023-01-15T01:35:53;15;15;
70922;PMS5003;58573;28.942;-13.688;2023-01-15T01:38:18;15;14;
70922;PMS5003;58573;28.942;-13.688;2023-01-15T01:40:44;18;15;
70922;PMS5003;58573;28.942;-13.688;2023-01-15T01:43:15;15;14;
70922;PMS5003;58573;28.942;-13.688;2023-01-15T01:45:35;16;16;
70922;PMS5003;58573;28.942;-13.688;2023-01-15T01:48:01;15;15;
70922;PMS5003;58573;28.942;-13.688;2023-01-15T01:50:26;19;18;
70922;PMS5003;58573;28.942;-13.688;2023-01-15T01:52:52;14;13;
70922;PMS5003;58573;28.942;-13.688;2023-01-15T01:55:17;15;14;
70922;PMS5003;58573;28.942;-13.688;2023-01-15T01:57:42;14;13;
70922;PMS5003;58573;28.942;-13.688;2023-01-15T02:00:08;13;12;
70922;PMS5003;58573;28.942;-13.688;2023-01-15T02:02:33;16;16;
70922;PMS5003;58573;28.942;-13.688;2023-01-15T02:04:58;16;16;
70922;PMS5003;58573;28.942;-13.688;2023-01-15T02:07:23;18;18;
70922;PMS5003;58573;28.942;-13.688;2023-01-15T02:09:49;18;15;
70922;PMS5003;58573;28.942;-13.688;2023-01-15T02:12:15;15;15;
70922;PMS5003;58573;28.942;-13.688;2023-01-15T02:14:41;16;16;
70922;PMS5003;58573;28.942;-13.688;2023-01-15T02:17:06;16;14;
70922;PMS5003;58573;28.942;-13.688;2023-01-15T02:19:35;13;13;
70922;PMS5003;58573;28.942;-13.688;2023-01-15T02:21:58;13;13;
70922;PMS5003;58573;28.942;-13.688;2023-01-15T02:24:22;15;15;
70922;PMS5003;58573;28.942;-13.688;2023-01-15T02:26:49;14;13;
70922;PMS5003;58573;28.942;-13.688;2023-01-15T02:29:14;14;14;
70922;PMS5003;58573;28.942;-13.688;2023-01-15T02:31:39;16;14;
70922;PMS5003;58573;28.942;-13.688;2023-01-15T02:34:04;15;14;
70922;PMS5003;58573;28.942;-13.688;2023-01-15T02:36:30;12;12;
70922;PMS5003;58573;28.942;-13.688;2023-01-15T02:38:55;14;12;
70922;PMS5003;58573;28.942;-13.688;2023-01-15T02:41:21;13;13;
70922;PMS5003;58573;28.942;-13.688;2023-01-15T02:43:46;13;12;
70922;PMS5003;58573;28.942;-13.688;2023-01-15T02:46:12;13;13;
70922;PMS5003;58573;28.942;-13.688;2023-01-15T02:48:37;14;14;
70922;PMS5003;58573;28.942;-13.688;2023-01-15T02:51:04;14;13;
70922;PMS5003;58573;28.942;-13.688;2023-01-15T02:53:28;16;15;
70922;PMS5003;58573;28.942;-13.688;2023-01-15T02:55:54;17;16;
70922;PMS5003;58573;28.942;-13.688;2023-01-15T02:58:19;11;10;
70922;PMS5003;58573;28.942;-13.688;2023-01-15T03:00:45;12;12;
70922;PMS5003;58573;28.942;-13.688;2023-01-15T03:03:11;14;13;
70922;PMS5003;58573;28.942;-13.688;2023-01-15T03:05:35;15;15;
70922;PMS5003;58573;28.942;-13.688;2023-01-15T03:08:00;13;13;
70922;PMS5003;58573;28.942;-13.688;2023-01-15T03:10:28;14;13;
70922;PMS5003;58573;28.942;-13.688;2023-01-15T03:12:53;12;12;
70922;PMS5003;58573;28.942;-13.688;2023-01-15T03:15:17;11;10;
70922;PMS5003;58573;28.942;-13.688;2023-01-15T03:17:44;12;12;
70922;PMS5003;58573;28.942;-13.688;2023-01-15T03:20:08;13;13;
70922;PMS5003;58573;28.942;-13.688;2023-01-15T03:22:35;13;13;
70922;PMS5003;58573;28.942;-13.688;2023-01-15T03:25:00;12;12;
70922;PMS5003;58573;28.942;-13.688;2023-01-15T03:27:26;13;13;
70922;PMS5003;58573;28.942;-13.688;2023-01-15T03:29:51;12;12;
70922;PMS5003;58573;28.942;-13.688;2023-01-15T03:32:16;12;12;
70922;PMS5003;58573;28.942;-13.688;2023-01-15T03:34:43;12;12;
70922;PMS5003;58573;28.942;-13.688;2023-01-15T03:37:07;11;10;
70922;PMS5003;58573;28.942;-13.688;2023-01-15T03:39:33;14;14;
70922;PMS5003;58573;28.942;-13.688;2023-01-15T03:42:02;11;11;
70922;PMS5003;58573;28.942;-13.688;2023-01-15T03:44:26;18;16;
70922;PMS5003;58573;28.942;-13.688;2023-01-15T03:46:53;12;12;
70922;PMS5003;58573;28.942;-13.688;2023-01-15T03:49:17;10;10;
70922;PMS5003;58573;28.942;-13.688;2023-01-15T03:51:41;10;10;
70922;PMS5003;58573;28.942;-13.688;2023-01-15T03:54:07;13;13;
70922;PMS5003;58573;28.942;-13.688;2023-01-15T03:56:32;15;15;
70922;PMS5003;58573;28.942;-13.688;2023-01-15T03:58:57;11;10;
70922;PMS5003;58573;28.942;-13.688;2023-01-15T04:01:25;9;9;
70922;PMS5003;58573;28.942;-13.688;2023-01-15T04:03:47;12;12;
70922;PMS5003;58573;28.942;-13.688;2023-01-15T04:06:13;10;10;
70922;PMS5003;58573;28.942;-13.688;2023-01-15T04:08:39;11;10;
70922;PMS5003;58573;28.942;-13.688;2023-01-15T04:11:04;11;11;
70922;PMS5003;58573;28.942;-13.688;2023-01-15T04:13:30;12;12;
70922;PMS5003;58573;28.942;-13.688;2023-01-15T04:15:55;10;10;
70922;PMS5003;58573;28.942;-13.688;2023-01-15T04:18:21;13;13;
70922;PMS5003;58573;28.942;-13.688;2023-01-15T04:20:46;10;10;
70922;PMS5003;58573;28.942;-13.688;2023-01-15T04:23:12;11;11;
70922;PMS5003;58573;28.942;-13.688;2023-01-15T04:25:37;11;10;
70922;PMS5003;58573;28.942;-13.688;2023-01-15T04:28:03;13;13;
70922;PMS5003;58573;28.942;-13.688;2023-01-15T04:30:29;8;8;
70922;PMS5003;58573;28.942;-13.688;2023-01-15T04:32:54;8;8;
70922;PMS5003;58573;28.942;-13.688;2023-01-15T04:35:20;10;10;
70922;PMS5003;58573;28.942;-13.688;2023-01-15T04:37:45;10;10;
70922;PMS5003;58573;28.942;-13.688;2023-01-15T04:40:11;11;10;
70922;PMS5003;58573;28.942;-13.688;2023-01-15T04:42:36;11;11;
70922;PMS5003;58573;28.942;-13.688;2023-01-15T04:45:02;11;10;
70922;PMS5003;58573;28.942;-13.688;2023-01-15T04:47:28;9;9;
70922;PMS5003;58573;28.942;-13.688;2023-01-15T04:49:53;12;11;
70922;PMS5003;58573;28.942;-13.688;2023-01-15T04:52:19;8;8;
70922;PMS5003;58573;28.942;-13.688;2023-01-15T04:54:44;9;9;
70922;PMS5003;58573;28.942;-13.688;2023-01-15T04:57:10;11;10;
70922;PMS5003;58573;28.942;-13.688;2023-01-15T04:59:35;9;9;
70922;PMS5003;58573;28.942;-13.688;2023-01-15T05:02:01;9;8;
70922;PMS5003;58573;28.942;-13.688;2023-01-15T05:04:27;9;9;
70922;PMS5003;58573;28.942;-13.688;2023-01-15T05:06:52;12;12;
70922;PMS5003;58573;28.942;-13.688;2023-01-15T05:09:18;10;9;
70922;PMS5003;58573;28.942;-13.688;2023-01-15T05:11:43;10;10;
70922;PMS5003;58573;28.942;-13.688;2023-01-15T05:14:09;10;10;
70922;PMS5003;58573;28.942;-13.688;2023-01-15T05:16:34;10;10;
70922;PMS5003;58573;28.942;-13.688;2023-01-15T05:19:00;9;9;
70922;PMS5003;58573;28.942;-13.688;2023-01-15T05:21:26;10;9;
70922;PMS5003;58573;28.942;-13.688;2023-01-15T05:23:52;10;10;
70922;PMS5003;58573;28.942;-13.688;2023-01-15T05:26:16;11;10;
70922;PMS5003;58573;28.942;-13.688;2023-01-15T05:28:42;10;8;
70922;PMS5003;58573;28.942;-13.688;2023-01-15T05:31:08;11;10;
70922;PMS5003;58573;28.942;-13.688;2023-01-15T05:33:33;11;9;
70922;PMS5003;58573;28.942;-13.688;2023-01-15T05:36:00;11;10;
70922;PMS5003;58573;28.942;-13.688;2023-01-15T05:38:24;9;9;
70922;PMS5003;58573;28.942;-13.688;2023-01-15T05:40:50;8;8;
70922;PMS5003;58573;28.942;-13.688;2023-01-15T05:43:15;9;9;
70922;PMS5003;58573;28.942;-13.688;2023-01-15T05:45:41;10;10;
70922;PMS5003;58573;28.942;-13.688;2023-01-15T05:48:06;8;8;
70922;PMS5003;58573;28.942;-13.688;2023-01-15T05:50:32;11;10;
70922;PMS5003;58573;28.942;-13.688;2023-01-15T05:52:58;9;8;
70922;PMS5003;58573;28.942;-13.688;2023-01-15T05:55:23;9;9;
70922;PMS5003;58573;28.942;-13.688;2023-01-15T05:57:49;14;12;
70922;PMS5003;58573;28.942;-13.688;2023-01-15T06:00:15;11;10;
70922;PMS5003;58573;28.942;-13.688;2023-01-15T06:02:40;11;11;
70922;PMS5003;58573;28.942;-13.688;2023-01-15T06:05:06;12;10;
70922;PMS5003;58573;28.942;-13.688;2023-01-15T06:07:31;10;9;
70922;PMS5003;58573;28.942;-13.688;2023-01-15T06:09:56;12;12;
70922;PMS5003;58573;28.942;-13.688;2023-01-15T06:12:22;9;9;
70922;PMS5003;58573;28.942;-13.688;2023-01-15T06:14:47;13;13;
70922;PMS5003;58573;28.942;-13.688;2023-01-15T06:17:13;10;9;
70922;PMS5003;58573;28.942;-13.688;2023-01-15T06:19:39;10;10;
70922;PMS5003;58573;28.942;-13.688;2023-01-15T06:22:04;8;8;
70922;PMS5003;58573;28.942;-13.688;2023-01-15T06:24:29;11;10;
70922;PMS5003;58573;28.942;-13.688;2023-01-15T06:26:55;11;11;
70922;PMS5003;58573;28.942;-13.688;2023-01-15T06:29:20;11;11;
70922;PMS5003;58573;28.942;-13.688;2023-01-15T06:31:46;13;13;
70922;PMS5003;58573;28.942;-13.688;2023-01-15T06:34:12;10;10;
70922;PMS5003;58573;28.942;-13.688;2023-01-15T06:36:37;11;11;
70922;PMS5003;58573;28.942;-13.688;2023-01-15T06:39:03;12;11;
70922;PMS5003;58573;28.942;-13.688;2023-01-15T06:41:28;13;12;
70922;PMS5003;58573;28.942;-13.688;2023-01-15T06:43:53;12;12;
70922;PMS5003;58573;28.942;-13.688;2023-01-15T06:46:19;13;12;
70922;PMS5003;58573;28.942;-13.688;2023-01-15T06:48:44;13;12;
70922;PMS5003;58573;28.942;-13.688;2023-01-15T06:51:10;10;9;
70922;PMS5003;58573;28.942;-13.688;2023-01-15T06:53:35;8;7;
70922;PMS5003;58573;28.942;-13.688;2023-01-15T06:56:01;9;9;
70922;PMS5003;58573;28.942;-13.688;2023-01-15T06:58:26;8;8;
70922;PMS5003;58573;28.942;-13.688;2023-01-15T07:00:51;10;9;
70922;PMS5003;58573;28.942;-13.688;2023-01-15T07:03:17;8;8;
70922;PMS5003;58573;28.942;-13.688;2023-01-15T07:05:42;13;13;
70922;PMS5003;58573;28.942;-13.688;2023-01-15T07:08:08;10;9;
70922;PMS5003;58573;28.942;-13.688;2023-01-15T07:10:33;8;8;
70922;PMS5003;58573;28.942;-13.688;2023-01-15T07:12:59;10;10;
70922;PMS5003;58573;28.942;-13.688;2023-01-15T07:15:24;10;10;
70922;PMS5003;58573;28.942;-13.688;2023-01-15T07:17:52;11;10;
70922;PMS5003;58573;28.942;-13.688;2023-01-15T07:20:15;11;10;
70922;PMS5003;58573;28.942;-13.688;2023-01-15T07:22:41;7;7;
70922;PMS5003;58573;28.942;-13.688;2023-01-15T07:25:07;9;8;
70922;PMS5003;58573;28.942;-13.688;2023-01-15T07:27:31;7;7;
70922;PMS5003;58573;28.942;-13.688;2023-01-15T07:29:57;8;8;
70922;PMS5003;58573;28.942;-13.688;2023-01-15T07:32:23;7;7;
70922;PMS5003;58573;28.942;-13.688;2023-01-15T07:34:48;10;9;
70922;PMS5003;58573;28.942;-13.688;2023-01-15T07:37:14;8;7;
70922;PMS5003;58573;28.942;-13.688;2023-01-15T07:39:39;8;7;
70922;PMS5003;58573;28.942;-13.688;2023-01-15T07:42:05;6;6;
70922;PMS5003;58573;28.942;-13.688;2023-01-15T07:44:30;9;8;
70922;PMS5003;58573;28.942;-13.688;2023-01-15T07:46:56;8;7;
70922;PMS5003;58573;28.942;-13.688;2023-01-15T07:49:21;7;7;
70922;PMS5003;58573;28.942;-13.688;2023-01-15T07:51:47;8;8;
70922;PMS5003;58573;28.942;-13.688;2023-01-15T07:54:12;7;7;
70922;PMS5003;58573;28.942;-13.688;2023-01-15T07:56:38;7;7;
70922;PMS5003;58573;28.942;-13.688;2023-01-15T07:59:04;8;8;
70922;PMS5003;58573;28.942;-13.688;2023-01-15T08:01:29;9;9;
70922;PMS5003;58573;28.942;-13.688;2023-01-15T08:03:55;9;9;
70922;PMS5003;58573;28.942;-13.688;2023-01-15T08:06:20;9;9;
70922;PMS5003;58573;28.942;-13.688;2023-01-15T08:08:46;9;9;
70922;PMS5003;58573;28.942;-13.688;2023-01-15T08:11:11;8;8;
70922;PMS5003;58573;28.942;-13.688;2023-01-15T08:13:37;9;6;
70922;PMS5003;58573;28.942;-13.688;2023-01-15T08:16:02;7;5;
70922;PMS5003;58573;28.942;-13.688;2023-01-15T08:18:27;7;7;
70922;PMS5003;58573;28.942;-13.688;2023-01-15T08:20:53;7;7;
70922;PMS5003;58573;28.942;-13.688;2023-01-15T08:23:19;5;5;
70922;PMS5003;58573;28.942;-13.688;2023-01-15T08:25:44;7;6;
70922;PMS5003;58573;28.942;-13.688;2023-01-15T08:28:09;7;6;
70922;PMS5003;58573;28.942;-13.688;2023-01-15T08:30:35;7;7;
70922;PMS5003;58573;28.942;-13.688;2023-01-15T08:33:01;6;6;
70922;PMS5003;58573;28.942;-13.688;2023-01-15T08:35:26;5;5;
70922;PMS5003;58573;28.942;-13.688;2023-01-15T08:37:52;10;9;
70922;PMS5003;58573;28.942;-13.688;2023-01-15T08:40:17;6;5;
70922;PMS5003;58573;28.942;-13.688;2023-01-15T08:42:43;7;6;
70922;PMS5003;58573;28.942;-13.688;2023-01-15T08:45:08;5;5;
70922;PMS5003;58573;28.942;-13.688;2023-01-15T08:47:33;7;7;
70922;PMS5003;58573;28.942;-13.688;2023-01-15T08:49:59;6;5;
70922;PMS5003;58573;28.942;-13.688;2023-01-15T08:52:25;7;6;
70922;PMS5003;58573;28.942;-13.688;2023-01-15T08:54:50;7;7;
70922;PMS5003;58573;28.942;-13.688;2023-01-15T08:57:16;5;4;
70922;PMS5003;58573;28.942;-13.688;2023-01-15T08:59:41;6;6;
70922;PMS5003;58573;28.942;-13.688;2023-01-15T09:02:08;5;5;
70922;PMS5003;58573;28.942;-13.688;2023-01-15T09:04:32;6;5;
70922;PMS5003;58573;28.942;-13.688;2023-01-15T09:06:57;7;6;
70922;PMS5003;58573;28.942;-13.688;2023-01-15T09:09:23;5;5;
70922;PMS5003;58573;28.942;-13.688;2023-01-15T09:11:49;6;6;
70922;PMS5003;58573;28.942;-13.688;2023-01-15T09:14:14;6;6;
70922;PMS5003;58573;28.942;-13.688;2023-01-15T09:16:40;6;5;
70922;PMS5003;58573;28.942;-13.688;2023-01-15T09:19:05;6;6;
70922;PMS5003;58573;28.942;-13.688;2023-01-15T09:21:31;6;6;
70922;PMS5003;58573;28.942;-13.688;2023-01-15T09:23:56;5;5;
70922;PMS5003;58573;28.942;-13.688;2023-01-15T09:26:24;6;6;
70922;PMS5003;58573;28.942;-13.688;2023-01-15T09:28:46;4;4;
70922;PMS5003;58573;28.942;-13.688;2023-01-15T09:31:12;4;4;
70922;PMS5003;58573;28.942;-13.688;2023-01-15T09:33:37;5;5;
70922;PMS5003;58573;28.942;-13.688;2023-01-15T09:36:03;5;5;
70922;PMS5003;58573;28.942;-13.688;2023-01-15T09:38:28;5;5;
70922;PMS5003;58573;28.942;-13.688;2023-01-15T09:40:53;4;4;
70922;PMS5003;58573;28.942;-13.688;2023-01-15T09:43:25;7;5;
70922;PMS5003;58573;28.942;-13.688;2023-01-15T09:45:45;5;5;
70922;PMS5003;58573;28.942;-13.688;2023-01-15T09:48:13;6;6;
70922;PMS5003;58573;28.942;-13.688;2023-01-15T09:50:38;5;5;
70922;PMS5003;58573;28.942;-13.688;2023-01-15T09:53:04;6;6;
70922;PMS5003;58573;28.942;-13.688;2023-01-15T09:55:26;6;6;
70922;PMS5003;58573;28.942;-13.688;2023-01-15T09:57:53;5;5;
70922;PMS5003;58573;28.942;-13.688;2023-01-15T10:00:18;6;6;
70922;PMS5003;58573;28.942;-13.688;2023-01-15T10:02:43;6;5;
70922;PMS5003;58573;28.942;-13.688;2023-01-15T10:05:10;7;6;
70922;PMS5003;58573;28.942;-13.688;2023-01-15T10:07:35;5;5;
70922;PMS5003;58573;28.942;-13.688;2023-01-15T10:10:00;7;7;
70922;PMS5003;58573;28.942;-13.688;2023-01-15T10:12:25;7;7;
70922;PMS5003;58573;28.942;-13.688;2023-01-15T10:14:53;8;7;
70922;PMS5003;58573;28.942;-13.688;2023-01-15T10:17:17;7;6;
70922;PMS5003;58573;28.942;-13.688;2023-01-15T10:19:40;9;9;
70922;PMS5003;58573;28.942;-13.688;2023-01-15T10:22:06;7;6;
70922;PMS5003;58573;28.942;-13.688;2023-01-15T10:24:33;6;6;
70922;PMS5003;58573;28.942;-13.688;2023-01-15T10:26:56;8;8;
70922;PMS5003;58573;28.942;-13.688;2023-01-15T10:29:23;9;8;
70922;PMS5003;58573;28.942;-13.688;2023-01-15T10:31:48;9;9;
70922;PMS5003;58573;28.942;-13.688;2023-01-15T10:36:38;7;7;
70922;PMS5003;58573;28.942;-13.688;2023-01-15T10:39:07;9;8;
70922;PMS5003;58573;28.942;-13.688;2023-01-15T10:41:30;11;10;
70922;PMS5003;58573;28.942;-13.688;2023-01-15T10:43:55;9;8;
70922;PMS5003;58573;28.942;-13.688;2023-01-15T10:46:21;15;15;
70922;PMS5003;58573;28.942;-13.688;2023-01-15T10:48:45;8;7;
70922;PMS5003;58573;28.942;-13.688;2023-01-15T10:51:12;10;9;
70922;PMS5003;58573;28.942;-13.688;2023-01-15T10:53:37;10;9;
70922;PMS5003;58573;28.942;-13.688;2023-01-15T10:56:02;10;10;
70922;PMS5003;58573;28.942;-13.688;2023-01-15T10:58:27;15;14;
70922;PMS5003;58573;28.942;-13.688;2023-01-15T11:00:53;10;10;
70922;PMS5003;58573;28.942;-13.688;2023-01-15T11:03:18;8;8;
70922;PMS5003;58573;28.942;-13.688;2023-01-15T11:05:42;9;9;
70922;PMS5003;58573;28.942;-13.688;2023-01-15T11:08:10;10;10;
70922;PMS5003;58573;28.942;-13.688;2023-01-15T11:10:33;9;9;
70922;PMS5003;58573;28.942;-13.688;2023-01-15T11:12:59;9;9;
70922;PMS5003;58573;28.942;-13.688;2023-01-15T11:15:24;9;9;
70922;PMS5003;58573;28.942;-13.688;2023-01-15T11:17:49;10;9;
70922;PMS5003;58573;28.942;-13.688;2023-01-15T11:20:23;11;11;
70922;PMS5003;58573;28.942;-13.688;2023-01-15T11:22:40;9;9;
70922;PMS5003;58573;28.942;-13.688;2023-01-15T11:25:06;9;9;
70922;PMS5003;58573;28.942;-13.688;2023-01-15T11:27:31;10;9;
70922;PMS5003;58573;28.942;-13.688;2023-01-15T11:29:57;13;12;
70922;PMS5003;58573;28.942;-13.688;2023-01-15T11:32:23;11;11;
70922;PMS5003;58573;28.942;-13.688;2023-01-15T11:34:51;10;10;
70922;PMS5003;58573;28.942;-13.688;2023-01-15T11:37:12;11;11;
70922;PMS5003;58573;28.942;-13.688;2023-01-15T11:39:37;10;10;
70922;PMS5003;58573;28.942;-13.688;2023-01-15T11:42:04;9;9;
70922;PMS5003;58573;28.942;-13.688;2023-01-15T11:44:29;15;15;
70922;PMS5003;58573;28.942;-13.688;2023-01-15T11:46:54;10;10;
70922;PMS5003;58573;28.942;-13.688;2023-01-15T11:49:20;9;9;
70922;PMS5003;58573;28.942;-13.688;2023-01-15T11:51:46;8;8;
70922;PMS5003;58573;28.942;-13.688;2023-01-15T11:54:11;14;13;
70922;PMS5003;58573;28.942;-13.688;2023-01-15T11:56:36;11;11;
70922;PMS5003;58573;28.942;-13.688;2023-01-15T11:59:01;9;9;
70922;PMS5003;58573;28.942;-13.688;2023-01-15T12:01:27;9;9;
70922;PMS5003;58573;28.942;-13.688;2023-01-15T12:03:52;12;11;
70922;PMS5003;58573;28.942;-13.688;2023-01-15T12:06:18;12;11;
70922;PMS5003;58573;28.942;-13.688;2023-01-15T12:08:45;13;12;
70922;PMS5003;58573;28.942;-13.688;2023-01-15T12:11:10;11;11;
70922;PMS5003;58573;28.942;-13.688;2023-01-15T12:13:35;9;9;
70922;PMS5003;58573;28.942;-13.688;2023-01-15T12:16:01;9;9;
70922;PMS5003;58573;28.942;-13.688;2023-01-15T12:18:29;10;8;
70922;PMS5003;58573;28.942;-13.688;2023-01-15T12:20:53;8;8;
70922;PMS5003;58573;28.942;-13.688;2023-01-15T12:23:21;9;8;
70922;PMS5003;58573;28.942;-13.688;2023-01-15T12:25:42;7;7;
70922;PMS5003;58573;28.942;-13.688;2023-01-15T12:28:05;10;8;
70922;PMS5003;58573;28.942;-13.688;2023-01-15T12:30:33;8;7;
70922;PMS5003;58573;28.942;-13.688;2023-01-15T12:32:59;9;9;
70922;PMS5003;58573;28.942;-13.688;2023-01-15T12:35:32;7;6;
70922;PMS5003;58573;28.942;-13.688;2023-01-15T12:37:48;8;7;
70922;PMS5003;58573;28.942;-13.688;2023-01-15T12:40:16;8;7;
70922;PMS5003;58573;28.942;-13.688;2023-01-15T12:42:37;6;6;
70922;PMS5003;58573;28.942;-13.688;2023-01-15T12:45:03;9;8;
70922;PMS5003;58573;28.942;-13.688;2023-01-15T12:47:28;6;6;
70922;PMS5003;58573;28.942;-13.688;2023-01-15T12:49:54;8;7;
70922;PMS5003;58573;28.942;-13.688;2023-01-15T12:52:18;7;7;
70922;PMS5003;58573;28.942;-13.688;2023-01-15T12:54:45;5;5;
70922;PMS5003;58573;28.942;-13.688;2023-01-15T12:57:11;6;4;
70922;PMS5003;58573;28.942;-13.688;2023-01-15T12:59:35;6;6;
70922;PMS5003;58573;28.942;-13.688;2023-01-15T13:02:03;6;6;
70922;PMS5003;58573;28.942;-13.688;2023-01-15T13:04:27;8;8;
70922;PMS5003;58573;28.942;-13.688;2023-01-15T13:06:51;7;6;
70922;PMS5003;58573;28.942;-13.688;2023-01-15T13:09:20;6;6;
70922;PMS5003;58573;28.942;-13.688;2023-01-15T13:11:41;6;6;
70922;PMS5003;58573;28.942;-13.688;2023-01-15T13:14:08;7;7;
70922;PMS5003;58573;28.942;-13.688;2023-01-15T13:16:34;5;5;
70922;PMS5003;58573;28.942;-13.688;2023-01-15T13:19:02;5;4;
70922;PMS5003;58573;28.942;-13.688;2023-01-15T13:21:22;4;4;
70922;PMS5003;58573;28.942;-13.688;2023-01-15T13:23:51;5;4;
70922;PMS5003;58573;28.942;-13.688;2023-01-15T13:26:16;6;5;
70922;PMS5003;58573;28.942;-13.688;2023-01-15T13:31:06;3;3;
70922;PMS5003;58573;28.942;-13.688;2023-01-15T13:33:31;4;4;
70922;PMS5003;58573;28.942;-13.688;2023-01-15T13:35:56;4;4;
70922;PMS5003;58573;28.942;-13.688;2023-01-15T13:38:21;3;3;
70922;PMS5003;58573;28.942;-13.688;2023-01-15T13:40:46;4;4;
70922;PMS5003;58573;28.942;-13.688;2023-01-15T13:45:36;3;3;
70922;PMS5003;58573;28.942;-13.688;2023-01-15T13:48:03;5;3;
70922;PMS5003;58573;28.942;-13.688;2023-01-15T13:50:28;3;3;
70922;PMS5003;58573;28.942;-13.688;2023-01-15T13:55:19;6;5;
70922;PMS5003;58573;28.942;-13.688;2023-01-15T13:57:42;4;3;
70922;PMS5003;58573;28.942;-13.688;2023-01-15T14:02:35;4;4;
70922;PMS5003;58573;28.942;-13.688;2023-01-15T14:04:59;1;1;
70922;PMS5003;58573;28.942;-13.688;2023-01-15T14:07:31;5;4;
70922;PMS5003;58573;28.942;-13.688;2023-01-15T14:09:49;3;3;
70922;PMS5003;58573;28.942;-13.688;2023-01-15T14:12:17;4;4;
70922;PMS5003;58573;28.942;-13.688;2023-01-15T14:14:46;4;4;
70922;PMS5003;58573;28.942;-13.688;2023-01-15T14:17:09;3;3;
70922;PMS5003;58573;28.942;-13.688;2023-01-15T14:19:37;3;3;
70922;PMS5003;58573;28.942;-13.688;2023-01-15T14:22:00;4;3;
70922;PMS5003;58573;28.942;-13.688;2023-01-15T14:26:49;4;4;
70922;PMS5003;58573;28.942;-13.688;2023-01-15T14:31:42;1;1;
70922;PMS5003;58573;28.942;-13.688;2023-01-15T14:34:09;2;2;
70922;PMS5003;58573;28.942;-13.688;2023-01-15T14:36:29;4;3;
70922;PMS5003;58573;28.942;-13.688;2023-01-15T14:38:54;4;4;
70922;PMS5003;58573;28.942;-13.688;2023-01-15T14:41:23;3;3;
70922;PMS5003;58573;28.942;-13.688;2023-01-15T14:43:47;3;3;
70922;PMS5003;58573;28.942;-13.688;2023-01-15T14:46:12;2;2;
70922;PMS5003;58573;28.942;-13.688;2023-01-15T14:48:36;4;3;
70922;PMS5003;58573;28.942;-13.688;2023-01-15T14:51:06;4;4;
70922;PMS5003;58573;28.942;-13.688;2023-01-15T14:53:29;4;4;
70922;PMS5003;58573;28.942;-13.688;2023-01-15T14:55:54;4;4;
70922;PMS5003;58573;28.942;-13.688;2023-01-15T14:58:22;5;5;
70922;PMS5003;58573;28.942;-13.688;2023-01-15T15:00:43;7;5;
70922;PMS5003;58573;28.942;-13.688;2023-01-15T15:03:11;3;3;
70922;PMS5003;58573;28.942;-13.688;2023-01-15T15:05:33;3;3;
70922;PMS5003;58573;28.942;-13.688;2023-01-15T15:07:58;4;4;
70922;PMS5003;58573;28.942;-13.688;2023-01-15T15:10:24;3;3;
70922;PMS5003;58573;28.942;-13.688;2023-01-15T15:12:52;3;3;
70922;PMS5003;58573;28.942;-13.688;2023-01-15T15:15:15;3;3;
70922;PMS5003;58573;28.942;-13.688;2023-01-15T15:17:43;3;3;
70922;PMS5003;58573;28.942;-13.688;2023-01-15T15:22:30;4;4;
70922;PMS5003;58573;28.942;-13.688;2023-01-15T15:24:56;3;3;
70922;PMS5003;58573;28.942;-13.688;2023-01-15T15:27:22;5;5;
70922;PMS5003;58573;28.942;-13.688;2023-01-15T15:29:47;4;4;
70922;PMS5003;58573;28.942;-13.688;2023-01-15T15:32:14;4;3;
70922;PMS5003;58573;28.942;-13.688;2023-01-15T15:34:38;3;3;
70922;PMS5003;58573;28.942;-13.688;2023-01-15T15:37:04;3;3;
70922;PMS5003;58573;28.942;-13.688;2023-01-15T15:39:33;3;3;
70922;PMS5003;58573;28.942;-13.688;2023-01-15T15:41:54;5;4;
70922;PMS5003;58573;28.942;-13.688;2023-01-15T15:44:21;3;3;
70922;PMS5003;58573;28.942;-13.688;2023-01-15T15:46:48;4;4;
70922;PMS5003;58573;28.942;-13.688;2023-01-15T15:49:10;2;2;
70922;PMS5003;58573;28.942;-13.688;2023-01-15T15:51:37;3;3;
70922;PMS5003;58573;28.942;-13.688;2023-01-15T15:54:03;5;4;
70922;PMS5003;58573;28.942;-13.688;2023-01-15T15:56:26;3;3;
70922;PMS5003;58573;28.942;-13.688;2023-01-15T15:58:51;4;4;
70922;PMS5003;58573;28.942;-13.688;2023-01-15T16:01:17;3;3;
70922;PMS5003;58573;28.942;-13.688;2023-01-15T16:03:44;3;3;
70922;PMS5003;58573;28.942;-13.688;2023-01-15T16:08:34;4;3;
70922;PMS5003;58573;28.942;-13.688;2023-01-15T16:10:59;3;3;
70922;PMS5003;58573;28.942;-13.688;2023-01-15T16:13:25;5;4;
70922;PMS5003;58573;28.942;-13.688;2023-01-15T16:15:49;3;3;